createdAt,value
2018-08-24T00:01:35.435Z,97.00
2018-08-24T00:04:08.174Z,97.00
2018-08-24T00:06:37.657Z,97.00
2018-08-24T00:09:16.552Z,97.00
2018-08-24T00:11:44.994Z,97.00
2018-08-24T00:14:13.499Z,97.00
2018-08-24T00:16:42.548Z,97.00
2018-08-24T00:19:12.284Z,97.00
2018-08-24T00:21:40.725Z,97.00
2018-08-24T00:24:09.997Z,97.00
2018-08-24T00:26:38.449Z,97.00
2018-08-24T00:29:07.338Z,97.00
2018-08-24T00:31:36.583Z,97.00
2018-08-24T00:34:05.161Z,97.00
2018-08-24T00:36:33.655Z,97.00
2018-08-24T00:39:02.155Z,97.00
2018-08-24T00:41:30.606Z,97.00
2018-08-24T00:43:59.034Z,97.00
2018-08-24T00:46:27.404Z,97.00
2018-08-24T00:48:55.729Z,97.00
2018-08-24T00:51:24.099Z,97.00
2018-08-24T00:53:52.468Z,97.00
2018-08-24T00:56:20.902Z,97.00
2018-08-24T00:58:49.278Z,97.00
2018-08-24T01:01:17.750Z,97.00
2018-08-24T01:03:46.209Z,97.00
2018-08-24T01:06:14.658Z,97.00
2018-08-24T01:08:45.038Z,97.00
2018-08-24T01:11:13.564Z,97.00
2018-08-24T01:13:41.964Z,97.00
2018-08-24T01:16:14.663Z,97.00
2018-08-24T01:18:49.120Z,97.00
2018-08-24T01:21:17.565Z,97.00
2018-08-24T01:23:46.012Z,97.00
2018-08-24T01:26:18.680Z,97.00
2018-08-24T01:28:47.304Z,97.00
2018-08-24T01:31:15.735Z,97.00
2018-08-24T01:33:44.184Z,97.00
2018-08-24T01:36:12.520Z,97.00
2018-08-24T01:38:40.875Z,97.00
2018-08-24T01:41:10.588Z,97.00
2018-08-24T01:43:38.907Z,97.00
2018-08-24T01:46:09.318Z,97.00
2018-08-24T01:48:38.154Z,97.00
2018-08-24T01:51:06.657Z,97.00
2018-08-24T01:53:35.090Z,97.00
2018-08-24T01:56:03.543Z,97.00
2018-08-24T01:58:31.989Z,97.00
2018-08-24T02:01:00.441Z,97.00
2018-08-24T02:03:28.824Z,97.00
2018-08-24T02:06:02.610Z,97.00
2018-08-24T02:08:31.004Z,97.00
2018-08-24T02:10:59.338Z,97.00
2018-08-24T02:13:32.930Z,97.00
2018-08-24T02:16:01.239Z,97.00
2018-08-24T02:18:35.510Z,97.00
2018-08-24T02:21:09.299Z,97.00
2018-08-24T02:23:37.671Z,97.00
2018-08-24T02:26:06.212Z,97.00
2018-08-24T02:28:34.520Z,97.00
2018-08-24T02:31:02.887Z,97.00
2018-08-24T02:33:35.582Z,97.00
2018-08-24T02:36:05.822Z,97.00
2018-08-24T02:38:34.373Z,97.00
2018-08-24T02:41:02.776Z,97.00
2018-08-24T02:43:31.150Z,97.00
2018-08-24T02:46:03.082Z,97.00
2018-08-24T02:48:31.495Z,97.00
2018-08-24T02:51:00.636Z,97.00
2018-08-24T02:53:28.975Z,97.00
2018-08-24T02:55:57.440Z,97.00
2018-08-24T02:58:25.798Z,97.00
2018-08-24T03:00:54.259Z,97.00
2018-08-24T03:03:23.244Z,97.00
2018-08-24T03:05:51.724Z,97.00
2018-08-24T03:08:20.081Z,97.00
2018-08-24T03:10:49.352Z,97.00
2018-08-24T03:13:17.702Z,97.00
2018-08-24T03:15:46.408Z,97.00
2018-08-24T03:18:14.959Z,97.00
2018-08-24T03:20:43.984Z,97.00
2018-08-24T03:23:12.378Z,97.00
2018-08-24T03:25:41.596Z,97.00
2018-08-24T03:28:09.913Z,97.00
2018-08-24T03:30:38.776Z,97.00
2018-08-24T03:33:07.124Z,97.00
2018-08-24T03:35:35.503Z,97.00
2018-08-24T03:38:03.893Z,97.00
2018-08-24T03:40:32.262Z,97.00
2018-08-24T03:43:00.584Z,97.00
2018-08-24T03:45:30.081Z,97.00
2018-08-24T03:47:58.475Z,97.00
2018-08-24T03:50:26.944Z,97.00
2018-08-24T03:52:55.368Z,97.00
2018-08-24T03:55:23.875Z,97.00
2018-08-24T03:57:52.334Z,97.00
2018-08-24T04:00:21.544Z,97.00
2018-08-24T04:02:51.269Z,97.00
2018-08-24T04:05:19.721Z,97.00
2018-08-24T04:07:48.174Z,97.00
2018-08-24T04:10:16.683Z,97.00
2018-08-24T04:12:45.069Z,97.00
2018-08-24T04:15:13.456Z,97.00
2018-08-24T04:17:44.817Z,97.00
2018-08-24T04:20:14.178Z,97.00
2018-08-24T04:22:42.660Z,97.00
2018-08-24T04:25:11.224Z,97.00
2018-08-24T04:27:40.524Z,97.00
2018-08-24T04:30:09.562Z,97.00
2018-08-24T04:32:37.989Z,97.00
2018-08-24T04:35:06.565Z,97.00
2018-08-24T04:37:35.531Z,97.00
2018-08-24T04:40:04.004Z,97.00
2018-08-24T04:42:32.440Z,97.00
2018-08-24T04:45:00.915Z,97.00
2018-08-24T04:47:29.346Z,97.00
2018-08-24T04:49:57.719Z,97.00
2018-08-24T04:52:26.083Z,97.00
2018-08-24T04:54:54.432Z,97.00
2018-08-24T04:57:22.767Z,97.00
2018-08-24T04:59:51.287Z,97.00
2018-08-24T05:02:19.709Z,97.00
2018-08-24T05:04:48.092Z,97.00
2018-08-24T05:07:16.412Z,97.00
2018-08-24T05:09:44.792Z,97.00
2018-08-24T05:12:13.161Z,97.00
2018-08-24T05:14:41.488Z,97.00
2018-08-24T05:17:09.955Z,97.00
2018-08-24T05:19:38.308Z,97.00
2018-08-24T05:22:06.762Z,97.00
2018-08-24T05:24:35.155Z,97.00
2018-08-24T05:27:03.647Z,97.00
2018-08-24T05:29:32.105Z,97.00
2018-08-24T05:32:00.476Z,97.00
2018-08-24T05:34:29.445Z,97.00
2018-08-24T05:36:57.783Z,97.00
2018-08-24T05:39:26.089Z,97.00
2018-08-24T05:41:54.415Z,97.00
2018-08-24T05:44:22.750Z,97.00
2018-08-24T05:46:51.090Z,97.00
2018-08-24T05:49:19.492Z,97.00
2018-08-24T05:51:47.870Z,97.00
2018-08-24T05:54:16.206Z,97.00
2018-08-24T05:56:44.644Z,97.00
2018-08-24T05:59:12.962Z,97.00
2018-08-24T06:01:41.264Z,97.00
2018-08-24T06:04:09.626Z,97.00
2018-08-24T06:06:37.958Z,97.00
2018-08-24T06:09:13.872Z,97.00
2018-08-24T06:11:42.380Z,97.00
2018-08-24T06:14:11.706Z,97.00
2018-08-24T06:16:44.339Z,97.00
2018-08-24T06:19:12.738Z,97.00
2018-08-24T06:21:41.041Z,97.00
2018-08-24T06:24:09.424Z,97.00
2018-08-24T06:26:37.775Z,97.00
2018-08-24T06:29:06.276Z,97.00
2018-08-24T06:31:34.783Z,97.00
2018-08-24T06:34:03.176Z,97.00
2018-08-24T06:36:31.536Z,97.00
2018-08-24T06:38:59.900Z,97.00
2018-08-24T06:41:28.243Z,97.00
2018-08-24T06:43:56.690Z,97.00
2018-08-24T06:46:25.148Z,97.00
2018-08-24T06:48:53.525Z,97.00
2018-08-24T06:51:21.849Z,97.00
2018-08-24T06:53:50.280Z,97.00
2018-08-24T06:56:18.716Z,97.00
2018-08-24T06:58:47.065Z,97.00
2018-08-24T07:01:15.531Z,97.00
2018-08-24T07:03:43.969Z,97.00
2018-08-24T07:06:12.352Z,97.00
2018-08-24T07:08:40.676Z,97.00
2018-08-24T07:11:09.063Z,97.00
2018-08-24T07:13:38.688Z,97.00
2018-08-24T07:16:07.049Z,97.00
2018-08-24T07:18:37.570Z,97.00
2018-08-24T07:21:05.960Z,97.00
2018-08-24T07:23:34.876Z,97.00
2018-08-24T07:26:03.211Z,97.00
2018-08-24T07:28:31.559Z,97.00
2018-08-24T07:30:59.960Z,97.00
2018-08-24T07:33:28.384Z,97.00
2018-08-24T07:35:56.735Z,97.00
2018-08-24T07:38:25.086Z,97.00
2018-08-24T07:40:53.795Z,97.00
2018-08-24T07:43:22.116Z,97.00
2018-08-24T07:45:50.518Z,97.00
2018-08-24T07:48:18.892Z,97.00
2018-08-24T07:50:47.264Z,97.00
2018-08-24T07:53:15.587Z,97.00
2018-08-24T07:55:44.550Z,97.00
2018-08-24T07:58:12.867Z,97.00
2018-08-24T08:00:41.440Z,97.00
2018-08-24T08:03:09.888Z,97.00
2018-08-24T08:05:38.298Z,97.00
2018-08-24T08:08:06.708Z,97.00
2018-08-24T08:10:39.013Z,97.00
2018-08-24T08:13:08.258Z,97.00
2018-08-24T08:15:36.731Z,97.00
2018-08-24T08:18:05.277Z,97.00
2018-08-24T08:20:33.668Z,97.00
2018-08-24T08:23:02.044Z,97.00
2018-08-24T08:25:30.412Z,97.00
2018-08-24T08:27:58.826Z,97.00
2018-08-24T08:30:27.352Z,97.00
2018-08-24T08:32:55.961Z,97.00
2018-08-24T08:35:24.280Z,97.00
2018-08-24T08:37:52.694Z,97.00
2018-08-24T08:40:21.103Z,97.00
2018-08-24T08:42:49.433Z,97.00
2018-08-24T08:45:17.839Z,97.00
2018-08-24T08:47:46.534Z,97.00
2018-08-24T08:50:14.925Z,97.00
2018-08-24T08:52:43.290Z,97.00
2018-08-24T08:55:11.697Z,97.00
2018-08-24T08:57:40.060Z,97.00
2018-08-24T09:00:08.560Z,97.00
2018-08-24T09:02:36.929Z,97.00
2018-08-24T09:05:05.468Z,97.00
2018-08-24T09:07:33.870Z,97.00
2018-08-24T09:10:02.382Z,97.00
2018-08-24T09:12:30.781Z,97.00
2018-08-24T09:14:59.156Z,97.00
2018-08-24T09:17:32.963Z,97.00
2018-08-24T09:20:06.663Z,97.00
2018-08-24T09:22:40.378Z,97.00
2018-08-24T09:25:14.205Z,97.00
2018-08-24T09:27:48.005Z,97.00
2018-08-24T09:30:16.463Z,97.00
2018-08-24T09:32:44.938Z,97.00
2018-08-24T09:35:13.219Z,97.00
2018-08-24T09:37:41.584Z,97.00
2018-08-24T09:40:09.933Z,97.00
2018-08-24T09:42:38.472Z,97.00
2018-08-24T09:45:06.920Z,97.00
2018-08-24T09:47:40.780Z,97.00
2018-08-24T09:50:14.647Z,97.00
2018-08-24T09:52:47.309Z,97.00
2018-08-24T09:55:15.710Z,96.30
2018-08-24T09:57:44.084Z,96.20
2018-08-24T10:00:12.478Z,95.90
2018-08-24T10:02:43.520Z,94.00
2018-08-24T10:05:17.510Z,92.70
2018-08-24T10:07:57.807Z,91.80
2018-08-24T10:10:26.235Z,91.60
2018-08-24T10:12:54.741Z,91.70
2018-08-24T10:15:23.223Z,91.30
2018-08-24T10:17:51.613Z,90.50
2018-08-24T10:20:19.974Z,89.80
2018-08-24T10:22:48.379Z,89.60
2018-08-24T10:25:17.049Z,89.60
2018-08-24T10:27:45.994Z,89.40
2018-08-24T10:30:14.513Z,88.60
2018-08-24T10:32:43.018Z,88.00
2018-08-24T10:35:11.461Z,88.00
2018-08-24T10:37:39.828Z,86.70
2018-08-24T10:40:08.228Z,85.10
2018-08-24T10:42:36.643Z,84.40
2018-08-24T10:45:05.382Z,83.10
2018-08-24T10:47:33.788Z,81.20
2018-08-24T10:50:02.282Z,80.40
2018-08-24T10:52:30.788Z,79.10
2018-08-24T10:54:59.464Z,78.00
2018-08-24T10:57:27.908Z,76.70
2018-08-24T10:59:57.028Z,77.00
2018-08-24T11:02:25.634Z,76.50
2018-08-24T11:04:54.093Z,75.70
2018-08-24T11:07:22.642Z,75.50
2018-08-24T11:09:50.988Z,75.30
2018-08-24T11:12:19.416Z,74.10
2018-08-24T11:14:47.817Z,74.60
2018-08-24T11:17:16.371Z,75.90
2018-08-24T11:19:44.849Z,77.10
2018-08-24T11:22:13.413Z,77.40
2018-08-24T11:24:41.857Z,77.50
2018-08-24T11:27:10.431Z,77.30
2018-08-24T11:29:39.708Z,76.40
2018-08-24T11:32:08.078Z,75.70
2018-08-24T11:34:36.573Z,74.20
2018-08-24T11:37:05.095Z,72.90
2018-08-24T11:39:33.630Z,72.40
2018-08-24T11:42:02.818Z,70.80
2018-08-24T11:44:31.224Z,70.10
2018-08-24T11:46:59.643Z,69.90
2018-08-24T11:49:28.080Z,70.90
2018-08-24T11:51:56.514Z,70.70
2018-08-24T11:54:24.962Z,70.00
2018-08-24T11:56:53.432Z,69.00
2018-08-24T11:59:21.971Z,69.00
2018-08-24T12:01:50.363Z,68.30
2018-08-24T12:04:18.800Z,67.50
2018-08-24T12:06:47.296Z,67.00
2018-08-24T12:09:15.670Z,67.40
2018-08-24T12:11:44.044Z,68.30
2018-08-24T12:14:12.452Z,66.60
2018-08-24T12:16:40.829Z,67.00
2018-08-24T12:19:09.454Z,65.90
2018-08-24T12:21:38.132Z,65.70
2018-08-24T12:24:06.565Z,65.20
2018-08-24T12:26:34.945Z,65.40
2018-08-24T12:29:05.647Z,65.70
2018-08-24T12:31:34.551Z,67.20
2018-08-24T12:34:03.199Z,67.30
2018-08-24T12:36:31.806Z,66.90
2018-08-24T12:39:00.253Z,67.30
2018-08-24T12:41:28.717Z,67.00
2018-08-24T12:43:57.265Z,66.70
2018-08-24T12:46:25.687Z,66.10
2018-08-24T12:48:54.093Z,66.60
2018-08-24T12:51:22.635Z,64.60
2018-08-24T12:53:51.622Z,63.30
2018-08-24T12:56:21.622Z,62.90
2018-08-24T12:58:51.819Z,63.50
2018-08-24T13:01:20.940Z,62.80
2018-08-24T13:03:50.033Z,61.90
2018-08-24T13:06:18.792Z,62.20
2018-08-24T13:08:47.522Z,62.40
2018-08-24T13:11:16.206Z,62.50
2018-08-24T13:13:44.778Z,63.20
2018-08-24T13:16:13.458Z,63.60
2018-08-24T13:18:43.238Z,63.60
2018-08-24T13:21:12.388Z,62.70
2018-08-24T13:23:40.996Z,62.40
2018-08-24T13:26:09.476Z,62.50
2018-08-24T13:28:38.316Z,63.30
2018-08-24T13:31:07.310Z,63.90
2018-08-24T13:33:35.962Z,63.80
2018-08-24T13:36:04.346Z,64.40
2018-08-24T13:38:32.810Z,63.00
2018-08-24T13:41:01.570Z,63.20
2018-08-24T13:43:29.935Z,64.20
2018-08-24T13:45:58.595Z,64.80
2018-08-24T13:48:27.056Z,65.60
2018-08-24T13:50:55.716Z,66.40
2018-08-24T13:53:24.143Z,66.70
2018-08-24T13:55:52.557Z,66.60
2018-08-24T13:58:21.185Z,66.60
2018-08-24T14:00:49.688Z,67.10
2018-08-24T14:03:18.037Z,67.40
2018-08-24T14:05:46.613Z,68.00
2018-08-24T14:08:15.039Z,67.70
2018-08-24T14:10:44.204Z,66.90
2018-08-24T14:13:12.769Z,65.50
2018-08-24T14:15:40.988Z,65.10
2018-08-24T14:18:09.474Z,64.60
2018-08-24T14:20:37.869Z,65.20
2018-08-24T14:23:06.275Z,65.00
2018-08-24T14:25:34.716Z,64.60
2018-08-24T14:28:03.809Z,64.40
2018-08-24T14:30:32.142Z,64.20
2018-08-24T14:33:00.585Z,63.00
2018-08-24T14:35:28.978Z,62.70
2018-08-24T14:37:57.392Z,62.40
2018-08-24T14:40:25.831Z,61.90
2018-08-24T14:42:54.237Z,61.80
2018-08-24T14:45:22.655Z,61.40
2018-08-24T14:47:51.096Z,63.00
2018-08-24T14:50:19.476Z,64.10
2018-08-24T14:52:47.798Z,65.20
2018-08-24T14:55:16.483Z,66.40
2018-08-24T14:57:44.885Z,67.20
2018-08-24T15:00:13.411Z,67.60
2018-08-24T15:02:41.846Z,67.70
2018-08-24T15:05:11.739Z,68.00
2018-08-24T15:07:40.246Z,67.40
2018-08-24T15:10:09.462Z,67.60
2018-08-24T15:12:38.193Z,67.70
2018-08-24T15:15:06.919Z,67.90
2018-08-24T15:17:35.409Z,68.40
2018-08-24T15:20:04.252Z,68.60
2018-08-24T15:22:33.153Z,68.80
2018-08-24T15:25:01.516Z,68.80
2018-08-24T15:27:30.254Z,68.50
2018-08-24T15:29:58.959Z,68.80
2018-08-24T15:32:27.303Z,69.40
2018-08-24T15:34:55.791Z,68.60
2018-08-24T15:37:24.101Z,68.00
2018-08-24T15:39:52.471Z,68.00
2018-08-24T15:42:21.436Z,68.40
2018-08-24T15:44:49.832Z,68.40
2018-08-24T15:47:18.210Z,68.60
2018-08-24T15:49:46.619Z,68.80
2018-08-24T15:52:14.960Z,68.70
2018-08-24T15:54:43.472Z,69.10
2018-08-24T15:57:11.767Z,69.40
2018-08-24T15:59:40.146Z,69.70
2018-08-24T16:02:08.700Z,69.80
2018-08-24T16:04:37.140Z,69.80
2018-08-24T16:07:05.597Z,69.70
2018-08-24T16:09:34.054Z,70.00
2018-08-24T16:12:02.833Z,70.50
2018-08-24T16:14:31.355Z,71.10
2018-08-24T16:16:59.829Z,71.00
2018-08-24T16:19:28.479Z,71.20
2018-08-24T16:21:57.133Z,71.20
2018-08-24T16:24:26.549Z,70.90
2018-08-24T16:26:54.988Z,71.30
2018-08-24T16:29:26.090Z,71.60
2018-08-24T16:31:54.492Z,72.10
2018-08-24T16:34:22.825Z,72.20
2018-08-24T16:36:51.324Z,72.40
2018-08-24T16:39:19.737Z,72.40
2018-08-24T16:41:48.148Z,72.10
2018-08-24T16:44:16.570Z,72.30
2018-08-24T16:46:44.995Z,72.80
2018-08-24T16:49:13.533Z,73.20
2018-08-24T16:51:42.100Z,73.50
2018-08-24T16:54:10.554Z,73.90
2018-08-24T16:56:38.872Z,74.20
2018-08-24T16:59:07.164Z,74.40
2018-08-24T17:01:44.965Z,74.40
2018-08-24T17:07:43.644Z,74.20
2018-08-24T17:10:12.121Z,73.60
2018-08-24T17:12:40.575Z,73.80
2018-08-24T17:15:08.972Z,74.10
2018-08-24T17:17:37.341Z,74.20
2018-08-24T17:20:05.848Z,74.10
2018-08-24T17:22:34.292Z,74.30
2018-08-24T17:25:02.751Z,73.80
2018-08-24T17:27:31.352Z,73.40
2018-08-24T17:29:59.834Z,72.70
2018-08-24T17:32:28.197Z,72.70
2018-08-24T17:34:56.562Z,72.50
2018-08-24T17:37:25.006Z,73.00
2018-08-24T17:39:53.347Z,73.40
2018-08-24T17:42:21.682Z,74.00
2018-08-24T17:44:50.113Z,74.40
2018-08-24T17:47:18.700Z,74.70
2018-08-24T17:49:47.268Z,75.20
2018-08-24T17:52:15.873Z,75.70
2018-08-24T17:54:44.254Z,75.90
2018-08-24T17:57:12.627Z,76.20
2018-08-24T17:59:41.028Z,76.40
2018-08-24T18:02:09.388Z,76.50
2018-08-24T18:04:38.011Z,76.80
2018-08-24T18:07:06.331Z,76.90
2018-08-24T18:09:34.877Z,77.20
2018-08-24T18:12:03.243Z,77.60
2018-08-24T18:14:31.654Z,77.80
2018-08-24T18:17:00.149Z,77.90
2018-08-24T18:19:28.557Z,78.20
2018-08-24T18:21:57.010Z,78.50
2018-08-24T18:24:25.565Z,78.90
2018-08-24T18:26:53.817Z,79.10
2018-08-24T18:29:22.353Z,79.10
2018-08-24T18:31:50.828Z,79.30
2018-08-24T18:34:19.315Z,79.50
2018-08-24T18:36:48.422Z,79.60
2018-08-24T18:39:19.321Z,79.10
2018-08-24T18:41:47.856Z,79.20
2018-08-24T18:44:16.309Z,79.00
2018-08-24T18:46:44.769Z,78.70
2018-08-24T18:49:13.170Z,77.90
2018-08-24T18:51:41.544Z,77.80
2018-08-24T18:54:09.986Z,77.70
2018-08-24T18:56:38.567Z,77.50
2018-08-24T18:59:07.042Z,77.30
2018-08-24T19:01:35.527Z,77.30
2018-08-24T19:04:03.951Z,77.50
2018-08-24T19:06:32.304Z,77.60
2018-08-24T19:09:00.802Z,77.90
2018-08-24T19:11:34.508Z,78.10
2018-08-24T19:14:03.115Z,78.40
2018-08-24T19:16:31.463Z,78.70
2018-08-24T19:19:05.297Z,78.90
2018-08-24T19:21:39.003Z,79.20
2018-08-24T19:24:07.561Z,79.50
2018-08-24T19:26:36.037Z,79.60
2018-08-24T19:29:09.972Z,79.60
2018-08-24T19:31:38.562Z,79.20
2018-08-24T19:34:07.157Z,79.30
2018-08-24T19:36:36.104Z,79.30
2018-08-24T19:39:07.883Z,79.40
2018-08-24T19:41:41.436Z,79.70
2018-08-24T19:44:09.821Z,79.70
2018-08-24T19:46:38.229Z,79.90
2018-08-24T19:49:12.150Z,80.00
2018-08-24T19:51:40.812Z,80.10
2018-08-24T19:54:09.295Z,80.20
2018-08-24T19:56:37.864Z,80.40
2018-08-24T19:59:08.042Z,80.20
2018-08-24T20:01:36.432Z,80.40
2018-08-24T20:04:05.761Z,80.60
2018-08-24T20:06:39.721Z,80.70
2018-08-24T20:09:16.324Z,81.00
2018-08-24T20:11:50.971Z,81.20
2018-08-24T20:14:24.763Z,81.20
2018-08-24T20:16:58.625Z,81.10
2018-08-24T20:19:27.880Z,81.10
2018-08-24T20:21:56.370Z,81.00
2018-08-24T20:24:24.949Z,80.80
2018-08-24T20:26:53.286Z,81.00
2018-08-24T20:29:21.674Z,81.00
2018-08-24T20:31:50.180Z,81.20
2018-08-24T20:34:18.690Z,81.30
2018-08-24T20:36:47.203Z,81.40
2018-08-24T20:39:15.740Z,81.40
2018-08-24T20:41:44.160Z,81.10
2018-08-24T20:44:14.155Z,80.90
2018-08-24T20:46:42.511Z,80.50
2018-08-24T20:49:10.912Z,80.30
2018-08-24T20:51:39.360Z,80.20
2018-08-24T20:54:07.868Z,80.30
2018-08-24T20:56:36.345Z,80.20
2018-08-24T20:59:05.453Z,80.00
2018-08-24T21:01:33.881Z,80.10
2018-08-24T21:04:03.209Z,80.00
2018-08-24T21:06:31.991Z,79.90
2018-08-24T21:09:00.342Z,80.00
2018-08-24T21:11:28.708Z,80.10
2018-08-24T21:13:57.090Z,80.20
2018-08-24T21:16:25.992Z,80.20
2018-08-24T21:18:55.526Z,80.20
2018-08-24T21:21:23.964Z,80.40
2018-08-24T21:23:52.374Z,80.50
2018-08-24T21:26:20.744Z,80.60
2018-08-24T21:28:49.112Z,80.70
2018-08-24T21:31:17.667Z,80.70
2018-08-24T21:33:46.154Z,80.80
2018-08-24T21:36:14.493Z,80.90
2018-08-24T21:38:43.527Z,81.00
2018-08-24T21:41:11.972Z,81.10
2018-08-24T21:43:40.875Z,81.20
2018-08-24T21:46:09.636Z,81.40
2018-08-24T21:48:38.075Z,81.60
2018-08-24T21:51:06.421Z,81.50
2018-08-24T21:53:34.763Z,81.70
2018-08-24T21:56:03.117Z,81.80
2018-08-24T21:58:31.513Z,82.00
2018-08-24T22:00:59.828Z,82.20
2018-08-24T22:03:28.166Z,82.50
2018-08-24T22:05:56.502Z,83.30
2018-08-24T22:08:24.859Z,83.30
2018-08-24T22:10:53.342Z,83.60
2018-08-24T22:13:21.680Z,83.90
2018-08-24T22:15:50.001Z,84.30
2018-08-24T22:18:18.460Z,84.30
2018-08-24T22:20:46.816Z,84.50
2018-08-24T22:23:15.895Z,84.70
2018-08-24T22:25:44.305Z,84.50
2018-08-24T22:28:14.429Z,84.50
2018-08-24T22:30:43.004Z,84.60
2018-08-24T22:33:11.739Z,84.50
2018-08-24T22:35:40.167Z,84.60
2018-08-24T22:38:08.699Z,84.60
2018-08-24T22:40:37.129Z,84.50
2018-08-24T22:43:09.729Z,84.50
2018-08-24T22:45:38.079Z,84.60
2018-08-24T22:48:06.407Z,84.60
2018-08-24T22:50:34.783Z,84.70
2018-08-24T22:53:03.221Z,84.80
2018-08-24T22:55:31.585Z,84.80
2018-08-24T22:57:59.936Z,84.80
2018-08-24T23:00:28.335Z,85.00
2018-08-24T23:02:57.687Z,85.10
2018-08-24T23:05:26.070Z,85.20
2018-08-24T23:08:00.952Z,85.50
2018-08-24T23:10:29.342Z,85.40
2018-08-24T23:12:57.816Z,85.70
2018-08-24T23:15:26.271Z,85.70
2018-08-24T23:17:54.694Z,85.60
2018-08-24T23:20:23.078Z,85.90
2018-08-24T23:22:51.698Z,85.90
2018-08-24T23:25:20.088Z,86.20
2018-08-24T23:27:48.448Z,86.00
2018-08-24T23:30:16.856Z,86.00
2018-08-24T23:32:45.168Z,86.10
2018-08-24T23:35:13.674Z,86.10
2018-08-24T23:37:42.089Z,86.00
2018-08-24T23:40:10.437Z,86.40
2018-08-24T23:42:38.831Z,86.40
2018-08-24T23:45:07.209Z,86.30
2018-08-24T23:47:35.588Z,86.40
2018-08-24T23:50:04.120Z,86.30
2018-08-24T23:52:32.456Z,86.70
2018-08-24T23:55:01.483Z,86.90
2018-08-24T23:57:29.895Z,86.70
2018-08-24T23:59:58.252Z,86.90
